Time;durP1;ratioP1;P1;durP2;ratioP2;P2;SDS_P1;SDS_P2;PMS_P1;PMS_P2;Temp;Humidity;BMP_temperature;BMP_pressure;BME280_temperature;BME280_humidity;BME280_pressure;Samples;Min_cycle;Max_cycle;Signal;HPM_P1;HPM_P2
2023/12/31 00:01:53;;;;;;;7.45;4.88;;;;;;;15.72;54.56;100419.16;4964387;28;20055;-44
2023/12/31 00:04:19;;;;;;;7.00;4.45;;;;;;;15.72;54.32;100409.28;4961746;28;20089;-44
2023/12/31 00:06:46;;;;;;;9.13;4.03;;;;;;;15.71;54.37;100402.25;4963247;28;20058;-43
2023/12/31 00:09:13;;;;;;;6.63;4.18;;;;;;;15.71;55.12;100399.56;4961759;28;20058;-43
2023/12/31 00:11:39;;;;;;;5.03;3.53;;;;;;;15.72;54.34;100392.44;4967721;28;20133;-43
2023/12/31 00:14:06;;;;;;;6.93;4.20;;;;;;;15.72;54.11;100395.94;4965010;28;20431;-43
2023/12/31 00:16:33;;;;;;;5.55;3.25;;;;;;;15.72;54.80;100387.91;4967413;28;20074;-43
2023/12/31 00:19:01;;;;;;;5.38;3.90;;;;;;;15.72;54.92;100379.91;4965857;28;20054;-43
2023/12/31 00:21:27;;;;;;;5.80;3.88;;;;;;;15.72;54.11;100365.72;4967280;28;20431;-43
2023/12/31 00:23:54;;;;;;;6.93;4.18;;;;;;;15.71;54.33;100364.84;4967816;28;20130;-43
2023/12/31 00:26:20;;;;;;;6.28;3.55;;;;;;;15.71;54.56;100356.81;4967236;28;20461;-43
2023/12/31 00:28:47;;;;;;;5.00;3.47;;;;;;;15.73;54.11;100356.69;4967339;28;20431;-43
2023/12/31 00:31:14;;;;;;;4.68;3.22;;;;;;;15.71;54.53;100351.47;4963293;28;20061;-43
2023/12/31 00:33:40;;;;;;;4.80;3.20;;;;;;;15.71;54.09;100356.81;4967309;28;20137;-43
2023/12/31 00:36:07;;;;;;;4.68;3.28;;;;;;;15.72;54.09;100350.50;4967941;28;20057;-43
2023/12/31 00:38:34;;;;;;;4.13;2.80;;;;;;;15.71;54.85;100351.47;4966313;28;20308;-44
2023/12/31 00:41:00;;;;;;;4.40;3.13;;;;;;;15.71;54.49;100343.47;4968749;28;20141;-43
2023/12/31 00:43:27;;;;;;;3.92;2.78;;;;;;;15.70;54.19;100352.47;4966388;28;20462;-43
2023/12/31 00:45:53;;;;;;;5.25;2.85;;;;;;;15.71;54.02;100343.47;4968185;28;20066;-43
2023/12/31 00:48:20;;;;;;;3.85;2.63;;;;;;;15.71;53.82;100334.63;4968410;28;20086;-43
2023/12/31 00:50:46;;;;;;;5.25;2.53;;;;;;;15.71;54.59;100324.75;4964950;28;20051;-43
2023/12/31 00:53:13;;;;;;;4.10;2.45;;;;;;;15.71;54.25;100324.75;4966499;28;20046;-42
2023/12/31 00:55:40;;;;;;;4.57;2.90;;;;;;;15.71;53.94;100314.06;4967428;28;20136;-43
2023/12/31 00:58:07;;;;;;;3.15;2.17;;;;;;;15.70;53.61;100315.06;4965884;28;20051;-43
2023/12/31 01:00:34;;;;;;;5.15;2.88;;;;;;;15.70;54.50;100309.72;4965417;28;20047;-43
2023/12/31 01:03:00;;;;;;;3.58;2.30;;;;;;;15.71;54.51;100305.22;4969246;28;20101;-43
2023/12/31 01:05:28;;;;;;;3.15;2.50;;;;;;;15.71;54.14;100305.22;4964916;28;20053;-43
2023/12/31 01:07:54;;;;;;;3.25;2.20;;;;;;;15.71;53.81;100300.72;4966878;28;20059;-43
2023/12/31 01:10:21;;;;;;;4.63;2.40;;;;;;;15.70;54.61;100296.38;4963356;28;20094;-43
2023/12/31 01:12:47;;;;;;;4.07;2.30;;;;;;;15.70;53.56;100292.88;4967431;28;20051;-43
2023/12/31 01:15:14;;;;;;;3.58;2.20;;;;;;;15.70;53.41;100292.88;4967239;28;20126;-43
2023/12/31 01:17:41;;;;;;;4.00;2.60;;;;;;;15.70;54.34;100283.03;4965809;28;20252;-42
2023/12/31 01:20:08;;;;;;;3.78;2.42;;;;;;;15.69;53.99;100270.66;4969443;28;20094;-43
2023/12/31 01:22:35;;;;;;;4.20;2.15;;;;;;;15.69;53.36;100262.66;4964727;28;20426;-43
2023/12/31 01:25:03;;;;;;;2.83;2.05;;;;;;;15.69;53.65;100259.97;4970024;28;20055;-43
2023/12/31 01:27:30;;;;;;;3.13;2.03;;;;;;;15.70;53.72;100258.13;4964927;28;20110;-43
2023/12/31 01:29:57;;;;;;;3.17;2.20;;;;;;;15.70;54.33;100245.63;4970302;28;20113;-43
2023/12/31 01:32:23;;;;;;;4.28;2.38;;;;;;;15.71;54.46;100246.44;4964279;28;20059;-43
2023/12/31 01:34:53;;;;;;;4.05;2.28;;;;;;;15.76;54.10;100239.69;4967662;28;20130;-43
2023/12/31 01:37:20;;;;;;;3.50;2.20;;;;;;;15.85;53.37;100229.88;4965610;28;20190;-43
2023/12/31 01:39:47;;;;;;;3.22;1.92;;;;;;;15.94;53.82;100231.63;4970255;28;20050;-43
2023/12/31 01:42:14;;;;;;;3.13;1.90;;;;;;;16.03;52.94;100220.00;4969757;28;20047;-43
2023/12/31 01:44:40;;;;;;;3.42;2.10;;;;;;;16.11;53.44;100221.88;4966898;28;20065;-43
2023/12/31 01:47:07;;;;;;;2.95;1.77;;;;;;;16.17;52.98;100210.59;4964392;28;20047;-42
2023/12/31 01:49:34;;;;;;;3.13;1.83;;;;;;;16.24;52.71;100208.97;4965016;28;20047;-42
2023/12/31 01:52:01;;;;;;;3.30;2.03;;;;;;;16.28;52.45;100207.66;4965900;28;20057;-43
2023/12/31 01:54:28;;;;;;;2.75;1.90;;;;;;;16.34;52.25;100208.84;4967174;28;20173;-43
2023/12/31 01:56:56;;;;;;;3.58;1.88;;;;;;;16.37;52.83;100203.19;4964071;28;20064;-42
2023/12/31 01:59:23;;;;;;;2.03;1.60;;;;;;;16.41;51.76;100207.22;4963789;28;20055;-43
2023/12/31 02:01:51;;;;;;;2.88;1.50;;;;;;;16.43;52.57;100201.72;4968773;28;20059;-43
2023/12/31 02:04:30;;;;;;;2.33;1.73;;;;;;;16.46;52.30;100201.41;4964489;28;20047;-43
2023/12/31 02:06:58;;;;;;;3.35;1.63;;;;;;;16.47;52.20;100195.88;4964484;28;20114;-43
2023/12/31 02:09:25;;;;;;;2.25;1.40;;;;;;;16.48;51.62;100184.19;4962756;28;20431;-43
2023/12/31 02:11:52;;;;;;;3.15;1.67;;;;;;;16.49;52.09;100182.34;4967000;28;20073;-43
2023/12/31 02:14:18;;;;;;;2.90;1.70;;;;;;;16.50;51.34;100174.16;4965891;28;20043;-43
2023/12/31 02:16:45;;;;;;;2.97;1.52;;;;;;;16.51;51.98;100170.47;4966518;28;20138;-43
2023/12/31 02:19:11;;;;;;;3.85;1.60;;;;;;;16.50;52.06;100163.47;4968261;28;20051;-43
2023/12/31 02:21:38;;;;;;;3.00;1.50;;;;;;;16.52;51.82;100155.25;4965629;28;20053;-43
2023/12/31 02:24:05;;;;;;;2.22;1.40;;;;;;;16.52;51.47;100152.59;4959217;28;20391;-43
2023/12/31 02:26:33;;;;;;;3.10;1.50;;;;;;;16.51;51.67;100156.28;4966772;28;20046;-43
2023/12/31 02:28:59;;;;;;;2.25;1.45;;;;;;;16.52;51.70;100139.22;4968204;28;20168;-43
2023/12/31 02:31:26;;;;;;;2.75;1.60;;;;;;;16.52;51.69;100140.06;4965124;28;20078;-43
2023/12/31 02:33:52;;;;;;;3.67;1.27;;;;;;;16.52;51.73;100131.19;4963863;28;20327;-43
2023/12/31 02:36:19;;;;;;;2.03;1.20;;;;;;;16.56;51.85;100119.16;4965773;28;20057;-43
2023/12/31 02:38:46;;;;;;;1.75;1.38;;;;;;;16.63;51.56;100119.38;4959204;28;20306;-43
2023/12/31 02:41:13;;;;;;;1.73;1.38;;;;;;;16.70;51.52;100112.38;4963737;28;20047;-43
2023/12/31 02:43:39;;;;;;;2.28;1.27;;;;;;;16.74;51.08;100106.56;4962944;28;20039;-42
2023/12/31 02:46:06;;;;;;;1.98;1.20;;;;;;;16.81;51.04;100106.75;4966961;28;20063;-43
2023/12/31 02:48:33;;;;;;;1.92;1.20;;;;;;;16.85;51.28;100091.22;4964396;28;20058;-42
2023/12/31 02:50:59;;;;;;;2.28;1.40;;;;;;;16.90;51.07;100088.88;4964813;28;20055;-42
2023/12/31 02:53:26;;;;;;;1.92;1.30;;;;;;;16.93;50.67;100069.81;4964017;28;20581;-42
2023/12/31 02:55:53;;;;;;;1.88;1.30;;;;;;;16.94;50.57;100064.28;4965738;28;20130;-42
2023/12/31 02:58:20;;;;;;;1.88;1.05;;;;;;;16.93;50.67;100059.09;4967770;28;20158;-41
2023/12/31 03:00:46;;;;;;;3.17;1.33;;;;;;;16.92;50.57;100054.72;4962640;28;20051;-41
2023/12/31 03:03:13;;;;;;;2.05;1.25;;;;;;;16.89;50.15;100044.38;4967266;28;20054;-43
2023/12/31 03:05:40;;;;;;;1.98;1.13;;;;;;;16.87;50.72;100039.19;4964027;28;20050;-43
2023/12/31 03:08:07;;;;;;;2.55;1.30;;;;;;;16.85;51.06;100038.50;4964000;28;20058;-43
2023/12/31 03:10:33;;;;;;;1.40;1.23;;;;;;;16.83;50.88;100039.69;4962087;28;20054;-43
2023/12/31 03:13:00;;;;;;;1.33;1.02;;;;;;;16.82;51.12;100040.69;4967287;28;20053;-43
2023/12/31 03:15:27;;;;;;;2.60;1.10;;;;;;;16.79;50.34;100025.78;4967152;28;20347;-43
2023/12/31 03:17:53;;;;;;;1.42;1.05;;;;;;;16.77;50.61;100022.44;4966861;28;20852;-43
2023/12/31 03:20:20;;;;;;;2.38;1.48;;;;;;;16.74;50.20;100012.91;4965278;28;21163;-43
2023/12/31 03:22:47;;;;;;;3.05;0.85;;;;;;;16.73;51.17;100011.25;4964954;28;20051;-43
2023/12/31 03:25:13;;;;;;;2.97;1.50;;;;;;;16.72;50.73;100001.50;4966633;28;20431;-43
2023/12/31 03:27:40;;;;;;;1.80;1.27;;;;;;;16.71;50.04;99990.97;4966938;28;20062;-43
2023/12/31 03:30:08;;;;;;;2.25;1.40;;;;;;;16.69;50.05;99982.28;4968071;28;20103;-43
2023/12/31 03:32:35;;;;;;;2.40;1.05;;;;;;;16.68;50.91;99983.25;4963211;28;20055;-43
2023/12/31 03:35:02;;;;;;;1.00;0.90;;;;;;;16.65;50.84;99973.75;4967924;28;20474;-42
2023/12/31 03:37:30;;;;;;;1.83;1.20;;;;;;;16.61;50.54;99956.34;4963124;28;20054;-43
2023/12/31 03:39:56;;;;;;;2.55;1.40;;;;;;;16.57;50.82;99960.34;4963032;28;20059;-43
2023/12/31 03:42:23;;;;;;;3.40;1.30;;;;;;;16.51;50.47;99961.84;4967148;28;20149;-43
2023/12/31 03:44:50;;;;;;;1.67;1.00;;;;;;;16.47;50.54;99946.28;4964571;28;20465;-43
2023/12/31 03:47:17;;;;;;;1.88;1.15;;;;;;;16.43;51.24;99934.25;4965368;28;20065;-43
2023/12/31 03:49:43;;;;;;;1.88;0.95;;;;;;;16.40;50.77;99931.91;4966510;28;20051;-43
2023/12/31 03:52:11;;;;;;;2.00;0.98;;;;;;;16.35;51.51;99915.50;4967791;28;20051;-43
2023/12/31 03:54:41;;;;;;;1.38;1.10;;;;;;;16.29;51.30;99912.50;4967300;28;20047;-43
2023/12/31 03:57:08;;;;;;;1.25;0.80;;;;;;;16.27;50.85;99909.16;4964875;28;20062;-43
2023/12/31 03:59:34;;;;;;;2.47;1.00;;;;;;;16.21;51.10;99907.16;4967094;28;20051;-42
2023/12/31 04:02:01;;;;;;;1.35;0.90;;;;;;;16.18;50.45;99901.28;4972136;28;20086;-43
2023/12/31 04:04:29;;;;;;;1.00;0.93;;;;;;;16.13;51.27;99904.47;4965541;28;20419;-43
2023/12/31 04:06:56;;;;;;;1.48;1.02;;;;;;;16.09;50.86;99892.44;4968702;28;20079;-44
2023/12/31 04:09:23;;;;;;;1.40;0.77;;;;;;;16.07;51.25;99889.06;4965923;28;20066;-43
2023/12/31 04:11:49;;;;;;;2.17;0.93;;;;;;;16.08;50.89;99873.84;4967764;28;20043;-43
2023/12/31 04:14:16;;;;;;;2.30;1.08;;;;;;;16.13;51.60;99877.72;4966610;28;20077;-43
2023/12/31 04:16:43;;;;;;;1.85;1.00;;;;;;;16.19;51.64;99877.06;4967952;28;20059;-43
2023/12/31 04:19:14;;;;;;;1.08;0.90;;;;;;;16.24;51.28;99857.84;4968937;28;20051;-43
2023/12/31 04:21:41;;;;;;;1.85;1.00;;;;;;;16.29;51.07;99853.69;4967601;28;20121;-43
2023/12/31 04:24:08;;;;;;;1.83;1.00;;;;;;;16.34;50.83;99847.81;4965310;28;20071;-43
2023/12/31 04:26:34;;;;;;;1.52;1.30;;;;;;;16.38;51.07;99838.47;4969643;28;20055;-43
2023/12/31 04:29:01;;;;;;;1.10;0.88;;;;;;;16.44;50.62;99828.94;4966677;28;20506;-44
2023/12/31 04:31:27;;;;;;;1.42;0.90;;;;;;;16.50;50.44;99825.59;4969254;28;20054;-43
2023/12/31 04:33:54;;;;;;;1.42;1.10;;;;;;;16.55;50.67;99831.25;4963874;28;20051;-43
2023/12/31 04:36:21;;;;;;;1.85;0.88;;;;;;;16.61;50.64;99817.22;4967226;28;20053;-43
2023/12/31 04:38:47;;;;;;;1.13;0.90;;;;;;;16.67;50.13;99813.88;4966945;28;20618;-43
2023/12/31 04:41:21;;;;;;;1.90;1.10;;;;;;;16.71;50.49;99799.13;4964109;28;20130;-43
2023/12/31 04:43:48;;;;;;;1.45;1.00;;;;;;;16.76;49.53;99788.81;4967458;28;20055;-43
2023/12/31 04:46:17;;;;;;;1.33;1.00;;;;;;;16.78;49.62;99778.75;4967156;28;20061;-43
2023/12/31 04:48:44;;;;;;;2.08;0.90;;;;;;;16.78;50.13;99797.50;4965859;28;20051;-43
2023/12/31 04:51:11;;;;;;;2.42;0.93;;;;;;;16.78;49.52;99786.78;4965472;28;20081;-42
2023/12/31 04:53:38;;;;;;;1.67;1.15;;;;;;;16.77;49.61;99787.78;4966720;28;20117;-42
2023/12/31 04:56:04;;;;;;;1.08;0.98;;;;;;;16.76;49.82;99779.91;4964865;28;20514;-43
2023/12/31 04:58:31;;;;;;;1.20;0.60;;;;;;;16.76;49.81;99780.78;4965840;28;20055;-43
2023/12/31 05:00:57;;;;;;;0.98;0.88;;;;;;;16.74;49.67;99785.47;4969328;28;20058;-43
2023/12/31 05:03:24;;;;;;;1.52;0.93;;;;;;;16.73;50.63;99766.91;4964529;28;20097;-43
2023/12/31 05:05:51;;;;;;;1.10;0.80;;;;;;;16.72;50.47;99774.06;4969687;28;20042;-43
2023/12/31 05:08:17;;;;;;;1.77;1.00;;;;;;;16.70;49.91;99772.56;4965922;28;20058;-43
2023/12/31 05:10:44;;;;;;;1.52;0.90;;;;;;;16.69;50.26;99758.34;4967359;28;20054;-42
2023/12/31 05:13:11;;;;;;;1.10;0.90;;;;;;;16.68;49.96;99759.38;4964847;28;20054;-43
2023/12/31 05:15:37;;;;;;;2.35;0.80;;;;;;;16.67;49.56;99752.31;4970140;28;20039;-42
2023/12/31 05:18:04;;;;;;;2.75;1.27;;;;;;;16.67;49.84;99749.66;4961230;28;20109;-42
2023/12/31 05:20:31;;;;;;;1.13;0.80;;;;;;;16.65;49.62;99749.00;4968586;28;20062;-43
2023/12/31 05:22:58;;;;;;;1.50;0.90;;;;;;;16.63;49.57;99745.66;4963942;28;20153;-42
2023/12/31 05:25:24;;;;;;;1.73;1.00;;;;;;;16.61;49.80;99731.63;4967795;28;20057;-43
2023/12/31 05:27:51;;;;;;;1.40;1.10;;;;;;;16.60;49.67;99719.22;4970126;28;20072;-43
2023/12/31 05:30:18;;;;;;;1.17;0.95;;;;;;;16.58;49.56;99702.53;4964049;28;20052;-43
2023/12/31 05:32:44;;;;;;;1.48;0.93;;;;;;;16.56;49.77;99707.22;4967272;28;20046;-43
2023/12/31 05:35:11;;;;;;;1.58;1.13;;;;;;;16.53;50.23;99702.22;4966265;28;20457;-43
2023/12/31 05:37:37;;;;;;;2.30;1.30;;;;;;;16.48;50.34;99705.41;4964925;28;20047;-42
2023/12/31 05:40:05;;;;;;;2.40;1.20;;;;;;;16.45;49.98;99691.56;4965550;28;20059;-43
2023/12/31 05:42:32;;;;;;;2.25;1.00;;;;;;;16.41;49.68;99685.72;4963519;28;20051;-43
2023/12/31 05:44:58;;;;;;;1.65;1.00;;;;;;;16.39;49.92;99692.22;4963137;28;20134;-43
2023/12/31 05:47:25;;;;;;;1.55;0.93;;;;;;;16.34;49.94;99681.22;4963590;28;20047;-42
2023/12/31 05:50:12;;;;;;;1.88;1.23;;;;;;;16.30;49.87;99672.69;4967907;28;20062;-43
2023/12/31 05:52:39;;;;;;;2.17;1.15;;;;;;;16.28;50.13;99670.19;4965667;28;20121;-43
2023/12/31 05:55:06;;;;;;;1.40;1.00;;;;;;;16.33;50.67;99666.19;4966742;28;20339;-43
2023/12/31 05:57:33;;;;;;;1.85;1.30;;;;;;;16.41;50.62;99661.63;4964248;28;20090;-43
2023/12/31 06:00:01;;;;;;;1.30;1.10;;;;;;;16.49;50.57;99647.41;4968119;28;20101;-43
2023/12/31 06:02:28;;;;;;;1.27;0.82;;;;;;;16.58;49.53;99642.84;4963921;28;20078;-43
2023/12/31 06:04:55;;;;;;;1.27;1.10;;;;;;;16.65;50.35;99655.38;4965090;28;20047;-43
2023/12/31 06:07:21;;;;;;;1.77;1.00;;;;;;;16.71;49.49;99641.28;4965089;28;20355;-43
2023/12/31 06:09:48;;;;;;;1.15;1.00;;;;;;;16.77;50.23;99634.44;4958971;28;20067;-43
2023/12/31 06:12:14;;;;;;;1.10;1.00;;;;;;;16.83;49.47;99648.97;4965299;28;20051;-42
2023/12/31 06:14:41;;;;;;;4.03;0.98;;;;;;;16.86;49.66;99646.75;4970113;28;20078;-42
2023/12/31 06:17:07;;;;;;;1.48;1.20;;;;;;;16.89;49.75;99630.38;4966443;28;20043;-42
2023/12/31 06:19:34;;;;;;;1.30;1.10;;;;;;;16.92;49.54;99629.16;4961855;28;20125;-41
2023/12/31 06:22:03;;;;;;;1.92;1.27;;;;;;;16.93;48.87;99622.81;4964011;28;20074;-41
2023/12/31 06:24:29;;;;;;;1.65;0.93;;;;;;;16.94;49.03;99619.13;4961062;28;20039;-42
2023/12/31 06:26:56;;;;;;;1.83;1.00;;;;;;;16.94;49.20;99611.94;4965400;28;20050;-42
2023/12/31 06:29:22;;;;;;;1.33;1.08;;;;;;;16.95;48.99;99602.03;4965715;28;20142;-41
2023/12/31 06:31:49;;;;;;;1.45;1.20;;;;;;;16.94;48.65;99597.72;4968402;28;20086;-42
2023/12/31 06:34:16;;;;;;;1.35;1.23;;;;;;;16.94;49.22;99600.38;4964361;28;20391;-41
2023/12/31 06:36:43;;;;;;;1.20;1.10;;;;;;;16.92;48.93;99581.81;4965016;28;20414;-42
2023/12/31 06:39:10;;;;;;;1.40;1.10;;;;;;;16.92;48.80;99583.66;4964022;28;20445;-42
2023/12/31 06:41:37;;;;;;;1.50;1.08;;;;;;;16.91;48.98;99577.47;4969413;28;20059;-42
2023/12/31 06:44:04;;;;;;;1.25;1.00;;;;;;;16.90;49.01;99566.97;4965564;28;20490;-42
2023/12/31 06:46:30;;;;;;;1.52;1.00;;;;;;;16.89;49.52;99559.94;4966389;28;20453;-41
2023/12/31 06:48:57;;;;;;;3.55;1.90;;;;;;;16.88;49.03;99558.25;4963874;28;20065;-43
2023/12/31 06:51:24;;;;;;;1.10;1.00;;;;;;;16.87;49.14;99580.69;4965618;28;20046;-43
2023/12/31 06:53:50;;;;;;;1.20;1.10;;;;;;;16.88;48.87;99571.66;4966928;28;20234;-41
2023/12/31 06:56:18;;;;;;;1.20;1.00;;;;;;;16.86;49.22;99561.13;4964351;28;20086;-43
2023/12/31 06:58:44;;;;;;;1.80;1.17;;;;;;;16.86;49.42;99560.31;4968614;28;20113;-43
2023/12/31 07:01:12;;;;;;;1.15;1.02;;;;;;;16.85;48.91;99566.66;4961871;28;20055;-43
2023/12/31 07:03:39;;;;;;;1.73;1.10;;;;;;;16.84;48.74;99562.31;4968770;28;20394;-43
2023/12/31 07:06:07;;;;;;;1.80;1.17;;;;;;;16.82;49.44;99540.25;4962850;28;20392;-43
2023/12/31 07:08:34;;;;;;;2.55;1.20;;;;;;;16.81;49.36;99544.78;4968315;28;20596;-43
2023/12/31 07:11:01;;;;;;;1.80;1.10;;;;;;;16.80;48.86;99539.59;4962600;28;20058;-44
2023/12/31 07:13:27;;;;;;;1.10;1.00;;;;;;;16.78;49.40;99534.41;4964905;28;20141;-43
2023/12/31 07:15:58;;;;;;;1.15;1.05;;;;;;;16.78;49.61;99523.72;4964489;28;20381;-43
2023/12/31 07:18:25;;;;;;;1.17;1.08;;;;;;;16.77;49.67;99522.88;4959434;28;20105;-43
2023/12/31 07:20:55;;;;;;;1.50;1.30;;;;;;;16.78;49.18;99526.41;4963712;28;20109;-44
2023/12/31 07:23:22;;;;;;;1.40;1.30;;;;;;;16.80;48.90;99521.69;4965397;28;20051;-44
2023/12/31 07:25:49;;;;;;;0.90;0.88;;;;;;;16.85;48.81;99511.31;4962237;28;20046;-44
2023/12/31 07:28:15;;;;;;;2.40;0.98;;;;;;;16.93;49.06;99507.72;4966501;28;20043;-43
2023/12/31 07:30:46;;;;;;;1.25;1.00;;;;;;;17.00;49.28;99512.19;4957029;28;20373;-44
2023/12/31 07:33:13;;;;;;;1.50;1.02;;;;;;;17.08;49.39;99513.94;4960931;28;20054;-44
2023/12/31 07:35:41;;;;;;;1.83;1.38;;;;;;;17.14;49.22;99518.59;4959044;28;20328;-43
2023/12/31 07:38:08;;;;;;;2.05;1.23;;;;;;;17.20;48.96;99507.16;4961100;28;20054;-44
2023/12/31 07:40:35;;;;;;;1.35;1.08;;;;;;;17.24;48.65;99511.13;4962565;28;20060;-44
2023/12/31 07:43:02;;;;;;;1.58;1.08;;;;;;;17.27;48.95;99505.41;4960983;28;20058;-44
2023/12/31 07:45:30;;;;;;;1.42;1.30;;;;;;;17.28;49.37;99501.72;4959414;28;20047;-43
2023/12/31 07:47:57;;;;;;;1.40;1.20;;;;;;;17.28;48.58;99488.31;4962725;28;20082;-43
2023/12/31 07:50:24;;;;;;;1.20;1.00;;;;;;;17.28;48.85;99493.69;4959357;28;20450;-43
2023/12/31 07:52:50;;;;;;;1.25;1.08;;;;;;;17.27;49.09;99489.34;4958151;28;20050;-43
2023/12/31 07:55:18;;;;;;;1.63;1.30;;;;;;;17.25;49.08;99483.34;4955827;28;20047;-43
2023/12/31 07:57:45;;;;;;;2.47;1.38;;;;;;;17.26;49.32;99489.53;4961127;28;20055;-43
2023/12/31 08:00:12;;;;;;;1.95;1.08;;;;;;;17.26;49.24;99478.84;4960621;28;20335;-43
2023/12/31 08:02:39;;;;;;;1.75;1.13;;;;;;;17.24;48.72;99481.66;4958537;28;20054;-43
2023/12/31 08:05:05;;;;;;;1.77;1.40;;;;;;;17.23;48.83;99474.66;4959648;28;20375;-43
2023/12/31 08:07:33;;;;;;;6.53;4.82;;;;;;;17.21;48.62;99474.03;4961077;28;20142;-42
2023/12/31 08:09:59;;;;;;;3.60;2.60;;;;;;;17.20;48.75;99456.28;4958760;28;20059;-43
2023/12/31 08:12:26;;;;;;;2.25;1.80;;;;;;;17.21;49.04;99459.81;4962005;28;20076;-43
2023/12/31 08:14:53;;;;;;;6.10;2.55;;;;;;;17.19;48.83;99457.28;4958569;28;20060;-43
2023/12/31 08:17:21;;;;;;;2.25;1.90;;;;;;;17.19;49.03;99457.28;4958544;28;20501;-42
2023/12/31 08:19:48;;;;;;;2.58;1.90;;;;;;;17.18;49.06;99450.28;4959741;28;20128;-43
2023/12/31 08:22:14;;;;;;;2.00;1.52;;;;;;;17.17;49.04;99448.63;4960372;28;20130;-43
2023/12/31 08:24:41;;;;;;;4.57;2.00;;;;;;;17.16;49.08;99452.28;4961746;28;20446;-43
2023/12/31 08:27:07;;;;;;;2.28;1.60;;;;;;;17.16;48.80;99446.13;4961035;28;20430;-45
2023/12/31 08:29:34;;;;;;;3.85;2.40;;;;;;;17.13;48.86;99447.34;4960352;28;20129;-44
2023/12/31 08:32:01;;;;;;;2.05;1.77;;;;;;;17.12;48.76;99442.97;4959352;28;20082;-43
2023/12/31 08:34:29;;;;;;;2.50;1.90;;;;;;;17.12;49.30;99444.81;4960579;28;20197;-42
2023/12/31 08:36:56;;;;;;;3.08;1.73;;;;;;;17.11;49.26;99433.28;4955093;28;20047;-43
2023/12/31 08:39:22;;;;;;;4.18;1.90;;;;;;;17.09;49.73;99429.97;4959999;28;20106;-42
2023/12/31 08:41:49;;;;;;;3.53;1.85;;;;;;;17.08;49.80;99425.59;4961318;28;20078;-43
2023/12/31 08:44:16;;;;;;;3.28;1.67;;;;;;;17.06;49.23;99438.34;4958202;28;20085;-43
2023/12/31 08:46:42;;;;;;;4.38;2.05;;;;;;;17.05;49.19;99428.66;4958733;28;20106;-43
2023/12/31 08:49:09;;;;;;;2.65;1.80;;;;;;;17.02;49.66;99435.22;4960057;28;20153;-43
2023/12/31 08:51:36;;;;;;;2.22;1.73;;;;;;;17.01;50.04;99427.38;4965182;28;20055;-43
2023/12/31 08:54:03;;;;;;;3.00;2.22;;;;;;;16.99;49.85;99424.03;4960302;28;20065;-43
2023/12/31 08:56:29;;;;;;;4.05;2.30;;;;;;;16.97;49.66;99431.41;4961387;28;20438;-43
2023/12/31 08:58:56;;;;;;;3.35;2.40;;;;;;;16.95;50.09;99431.59;4960508;28;20046;-43
2023/12/31 09:01:22;;;;;;;3.83;2.72;;;;;;;16.94;49.75;99431.78;4961343;28;20062;-42
2023/12/31 09:03:49;;;;;;;3.55;2.03;;;;;;;16.92;50.39;99559.56;4955416;28;20193;-42
2023/12/31 09:06:18;;;;;;;5.63;2.90;;;;;;;16.92;50.99;99552.38;4955586;28;20071;-43
2023/12/31 09:08:46;;;;;;;8.00;3.88;;;;;;;16.89;50.44;99550.06;4956942;28;20348;-43
2023/12/31 09:11:13;;;;;;;10.40;4.22;;;;;;;16.85;50.13;99527.34;4956822;28;20051;-43
2023/12/31 09:13:39;;;;;;;9.32;4.88;;;;;;;16.84;50.63;99523.00;4958716;28;20466;-43
2023/12/31 09:16:06;;;;;;;15.45;5.03;;;;;;;16.80;50.74;99510.97;4955995;28;20129;-43
2023/12/31 09:18:33;;;;;;;15.10;5.97;;;;;;;16.79;50.62;99506.66;4961123;28;20101;-43
2023/12/31 09:20:59;;;;;;;15.43;5.85;;;;;;;16.75;50.58;99495.47;4961159;28;20356;-43
2023/12/31 09:23:26;;;;;;;17.23;6.30;;;;;;;16.73;51.29;99494.81;4956452;28;20055;-44
2023/12/31 09:25:53;;;;;;;10.20;5.68;;;;;;;16.72;51.06;99503.84;4959118;28;20447;-44
2023/12/31 09:28:20;;;;;;;12.55;6.25;;;;;;;16.72;50.94;99503.84;4959780;28;21048;-44
2023/12/31 09:30:47;;;;;;;13.82;6.93;;;;;;;16.72;51.62;99509.19;4953940;28;20051;-43
2023/12/31 09:33:13;;;;;;;14.73;7.32;;;;;;;16.71;51.66;99493.28;4954226;28;20057;-43
2023/12/31 09:35:40;;;;;;;13.48;5.90;;;;;;;16.69;51.85;99493.47;4953654;28;20502;-43
2023/12/31 09:38:07;;;;;;;17.25;7.55;;;;;;;16.70;51.51;99503.16;4957536;28;20078;-43
2023/12/31 09:40:33;;;;;;;15.15;6.28;;;;;;;16.68;51.28;99502.53;4955611;28;20145;-43
2023/12/31 09:43:03;;;;;;;13.13;6.25;;;;;;;16.67;51.46;99500.84;4956746;28;20067;-44
2023/12/31 09:45:30;;;;;;;15.95;8.13;;;;;;;16.68;51.91;99499.84;4956057;28;20522;-44
2023/12/31 09:48:01;;;;;;;15.85;7.20;;;;;;;16.67;51.46;99516.91;4961635;28;20058;-43
2023/12/31 09:50:30;;;;;;;14.40;7.55;;;;;;;16.67;51.39;99522.25;4959230;28;20074;-43
2023/12/31 09:52:59;;;;;;;11.38;7.05;;;;;;;16.67;51.41;99506.19;4950477;28;20062;-42
2023/12/31 09:55:28;;;;;;;12.30;7.10;;;;;;;16.67;51.57;99508.88;4954233;28;20051;-43
2023/12/31 09:57:56;;;;;;;16.30;8.30;;;;;;;16.68;51.52;99521.25;4952294;28;20704;-43
2023/12/31 10:00:23;;;;;;;14.63;7.75;;;;;;;16.68;51.46;99512.38;4950300;28;20597;-43
2023/12/31 10:02:53;;;;;;;19.75;11.35;;;;;;;16.68;51.77;99497.19;4954584;28;20050;-43
2023/12/31 10:05:25;;;;;;;20.90;11.18;;;;;;;16.67;52.40;99492.81;4951522;28;20405;-44
2023/12/31 10:07:54;;;;;;;23.70;13.65;;;;;;;16.68;52.65;99493.66;4957528;28;20062;-43
2023/12/31 10:10:22;;;;;;;27.70;15.57;;;;;;;16.71;52.45;99491.44;4954227;28;20580;-43
2023/12/31 10:12:48;;;;;;;31.25;17.73;;;;;;;16.71;52.68;99490.63;4955668;28;20486;-44
2023/12/31 10:15:15;;;;;;;38.78;20.10;;;;;;;16.74;52.86;99488.47;4958199;28;20061;-43
2023/12/31 10:17:42;;;;;;;33.53;18.20;;;;;;;16.76;52.32;99486.44;4960671;28;20425;-44
2023/12/31 10:20:09;;;;;;;33.67;17.05;;;;;;;16.78;52.05;99487.09;4955409;28;20054;-43
2023/12/31 10:22:36;;;;;;;34.33;21.27;;;;;;;16.80;52.27;99467.34;4957492;28;20154;-43
2023/12/31 10:25:16;;;;;;;45.58;27.25;;;;;;;16.82;52.52;99481.38;4959602;28;20320;-43
2023/12/31 10:27:47;;;;;;;51.97;30.73;;;;;;;16.87;52.55;99469.13;4956788;28;20082;-43
2023/12/31 10:30:14;;;;;;;45.88;26.33;;;;;;;16.90;52.17;99462.59;4956831;28;20085;-43
2023/12/31 10:32:41;;;;;;;47.58;28.05;;;;;;;16.93;52.75;99472.94;4956314;28;20358;-43
2023/12/31 10:35:08;;;;;;;52.80;31.20;;;;;;;16.97;52.80;99468.91;4958874;28;20490;-43
2023/12/31 10:37:35;;;;;;;50.28;29.83;;;;;;;17.00;52.61;99479.22;4958926;28;20077;-43
2023/12/31 10:40:15;;;;;;;51.70;31.33;;;;;;;17.00;53.01;99457.81;4957307;28;20057;-43
2023/12/31 10:42:49;;;;;;;51.80;29.48;;;;;;;17.02;52.78;99459.28;4958916;28;20153;-43
2023/12/31 10:45:19;;;;;;;49.83;28.67;;;;;;;17.05;53.29;99458.13;4961963;28;20109;-43
2023/12/31 10:47:53;;;;;;;46.63;28.52;;;;;;;17.08;53.04;99459.56;4956364;28;20102;-44
2023/12/31 10:50:23;;;;;;;50.45;29.67;;;;;;;17.10;53.18;99449.53;4959343;28;20650;-43
2023/12/31 10:52:53;;;;;;;38.78;23.08;;;;;;;17.12;52.29;99452.84;4957998;28;20050;-43
2023/12/31 10:55:21;;;;;;;45.40;26.42;;;;;;;17.12;52.72;99453.69;4959431;28;20050;-43
2023/12/31 10:57:48;;;;;;;37.60;23.23;;;;;;;17.12;52.36;99448.31;4957033;28;20484;-43
2023/12/31 11:00:15;;;;;;;43.50;26.70;;;;;;;17.13;52.21;99452.69;4958220;28;20499;-43
2023/12/31 11:02:45;;;;;;;44.05;26.35;;;;;;;17.15;52.75;99445.28;4956437;28;20126;-43
2023/12/31 11:05:14;;;;;;;46.63;26.42;;;;;;;17.17;52.75;99437.09;4956841;28;20126;-43
2023/12/31 11:07:41;;;;;;;40.83;25.08;;;;;;;17.16;52.72;99436.22;4953642;28;20062;-43
2023/12/31 11:10:09;;;;;;;41.95;25.27;;;;;;;17.17;52.76;99437.09;4959179;28;20055;-43
2023/12/31 11:12:36;;;;;;;31.98;17.52;;;;;;;17.14;52.99;99427.56;4958455;28;20051;-43
2023/12/31 11:15:15;;;;;;;35.80;21.08;;;;;;;17.10;52.78;99452.22;4954672;28;20436;-43
2023/12/31 11:17:44;;;;;;;39.33;23.65;;;;;;;17.09;52.13;99462.09;4952676;28;20046;-43
2023/12/31 11:20:19;;;;;;;42.78;24.73;;;;;;;17.07;52.34;99465.94;4954382;28;20382;-44
2023/12/31 11:23:00;;;;;;;34.63;21.42;;;;;;;17.08;52.65;99481.81;4954012;28;20110;-43
2023/12/31 11:25:27;;;;;;;33.67;17.98;;;;;;;17.16;51.97;99462.19;4954376;28;20309;-43
2023/12/31 11:27:55;;;;;;;22.95;15.10;;;;;;;17.24;51.57;99497.75;4955487;28;20335;-43
2023/12/31 11:30:52;;;;;;;31.50;19.50;;;;;;;17.37;51.99;99507.84;4954442;28;20054;-43